Time;durP1;ratioP1;P1;durP2;ratioP2;P2;SDS_P1;SDS_P2;PMS_P1;PMS_P2;Temp;Humidity;BMP_temperature;BMP_pressure;BME280_temperature;BME280_humidity;BME280_pressure;Samples;Min_cycle;Max_cycle;Signal;HPM_P1;HPM_P2
2022/06/12 00:01:50;;;;;;;15.03;9.60;;;;;;;15.92;97.50;65858.09;5113733;28;20209;-74
2022/06/12 00:04:17;;;;;;;8.50;7.97;;;;;;;15.87;98.03;65857.75;5113748;28;20213;-74
2022/06/12 00:06:44;;;;;;;8.43;7.73;;;;;;;15.69;99.78;65838.81;5113791;28;20189;-74
2022/06/12 00:09:10;;;;;;;10.10;8.77;;;;;;;15.62;100.00;65817.94;5093691;28;20247;-73
2022/06/12 00:11:37;;;;;;;9.30;8.37;;;;;;;;;;5095791;28;20221;-72
2022/06/12 00:14:04;;;;;;;10.30;8.87;;;;;;;15.50;100.00;65809.81;5114287;28;20182;-73
2022/06/12 00:16:34;;;;;;;9.27;8.50;;;;;;;15.54;100.00;65816.88;5118844;28;20249;-72
2022/06/12 00:19:02;;;;;;;8.57;7.97;;;;;;;15.56;100.00;65821.72;5117862;28;20281;-72
2022/06/12 00:21:31;;;;;;;13.43;8.07;;;;;;;15.62;100.00;65825.25;5113497;28;20220;-73
2022/06/12 00:24:11;;;;;;;7.40;6.93;;;;;;;15.66;100.00;65827.63;5113523;28;20734;-73
2022/06/12 00:26:42;;;;;;;8.00;7.30;;;;;;;15.70;100.00;65834.16;5128357;28;20206;-73
2022/06/12 00:29:13;;;;;;;8.63;8.13;;;;;;;15.73;100.00;65836.94;5098270;28;20569;-72
2022/06/12 00:31:42;;;;;;;8.20;7.80;;;;;;;;;;5113493;28;20546;-73
2022/06/12 00:34:10;;;;;;;7.93;7.50;;;;;;;15.74;100.00;65835.44;5115120;28;20208;-73
2022/06/12 00:36:37;;;;;;;7.90;7.60;;;;;;;15.74;100.00;65838.06;5115686;28;20195;-73
2022/06/12 00:39:06;;;;;;;7.43;7.03;;;;;;;15.75;100.00;65854.88;5116811;28;20200;-73
2022/06/12 00:41:32;;;;;;;8.23;8.03;;;;;;;;;;5131150;28;20213;-72
2022/06/12 00:43:59;;;;;;;7.03;6.73;;;;;;;15.69;100.00;65830.97;5113186;28;20595;-73
2022/06/12 00:46:48;;;;;;;9.17;7.33;;;;;;;15.68;100.00;65832.47;5113300;28;20185;-73
2022/06/12 00:49:39;;;;;;;8.37;7.80;;;;;;;15.67;100.00;65831.38;5113666;28;20189;-73
2022/06/12 00:52:11;;;;;;;8.00;7.70;;;;;;;;;;5113286;28;20731;-73
2022/06/12 00:54:43;;;;;;;7.43;6.93;;;;;;;15.62;100.00;65822.63;5113274;28;20177;-73
2022/06/12 00:57:10;;;;;;;7.47;7.23;;;;;;;15.59;100.00;65827.69;5113242;28;20181;-73
2022/06/12 00:59:45;;;;;;;8.13;7.77;;;;;;;15.57;100.00;65822.84;5113325;28;20182;-73
2022/06/12 01:02:13;;;;;;;7.40;6.97;;;;;;;;;;5113014;28;20213;-73
2022/06/12 01:07:29;;;;;;;8.10;7.53;;;;;;;15.48;100.00;65810.19;5113560;28;20169;-73
2022/06/12 01:10:01;;;;;;;7.00;6.70;;;;;;;;;;5113553;28;20170;-73
2022/06/12 01:12:35;;;;;;;7.30;6.93;;;;;;;15.42;100.00;65800.88;5113610;28;20209;-73
2022/06/12 01:15:09;;;;;;;7.13;6.83;;;;;;;15.37;100.00;65798.50;5113497;28;20528;-73
2022/06/12 01:17:37;;;;;;;6.63;6.27;;;;;;;15.34;100.00;65792.53;5113723;28;20177;-73
2022/06/12 01:20:10;;;;;;;7.20;6.63;;;;;;;15.32;100.00;65795.00;5113016;28;20190;-73
2022/06/12 01:22:55;;;;;;;6.00;5.80;;;;;;;15.30;100.00;65790.16;5113412;28;20330;-73
2022/06/12 01:25:40;;;;;;;7.77;7.13;;;;;;;;;;5113393;28;20177;-73
2022/06/12 01:28:45;;;;;;;7.50;7.20;;;;;;;15.21;100.00;65785.34;5114682;28;20193;-73
2022/06/12 01:31:38;;;;;;;6.33;5.80;;;;;;;15.19;100.00;65770.63;5069621;28;20221;-73
2022/06/12 01:34:20;;;;;;;6.47;6.00;;;;;;;15.18;100.00;65777.34;5116425;28;20193;-73
2022/06/12 01:37:04;;;;;;;5.63;5.53;;;;;;;15.18;100.00;65779.41;5116613;28;20193;-73
2022/06/12 01:39:38;;;;;;;6.33;6.23;;;;;;;;;;5116797;28;20627;-73
2022/06/12 01:42:26;;;;;;;7.47;6.13;;;;;;;15.03;100.00;65758.59;5116372;28;20226;-72
2022/06/12 01:44:57;;;;;;;6.10;5.90;;;;;;;14.96;100.00;65750.25;5121485;27;20192;-73
2022/06/12 01:47:35;;;;;;;7.03;6.10;;;;;;;14.92;100.00;65748.41;5132348;27;20201;-72
2022/06/12 01:50:15;;;;;;;6.83;6.43;;;;;;;14.86;100.00;65742.31;5131950;27;20192;-72
2022/06/12 01:53:26;;;;;;;6.90;6.50;;;;;;;14.75;100.00;65730.63;5110565;28;20197;-72
2022/06/12 01:55:52;;;;;;;7.07;6.70;;;;;;;;;;5114982;28;20643;-72
2022/06/12 01:58:32;;;;;;;11.03;7.67;;;;;;;14.62;100.00;65716.16;5116064;28;20712;-73
2022/06/12 02:01:14;;;;;;;7.90;7.43;;;;;;;;;;5115956;28;20601;-73
2022/06/12 02:04:01;;;;;;;7.97;7.50;;;;;;;14.46;100.00;65696.31;5116083;28;20608;-73
2022/06/12 02:06:51;;;;;;;6.57;6.43;;;;;;;14.42;100.00;65699.09;5116291;28;20173;-73
2022/06/12 02:09:23;;;;;;;6.67;6.37;;;;;;;14.42;100.00;65693.88;5116517;28;20182;-73
2022/06/12 02:15:02;;;;;;;6.83;6.43;;;;;;;14.30;100.00;65684.28;5115714;28;20246;-72
2022/06/12 02:17:39;;;;;;;6.63;6.30;;;;;;;14.22;100.00;65672.22;5116053;28;20652;-72
2022/06/12 02:20:10;;;;;;;5.73;5.53;;;;;;;14.17;100.00;65669.81;5116308;28;20173;-72
2022/06/12 02:22:39;;;;;;;7.63;6.53;;;;;;;14.10;100.00;65664.09;5115989;28;20176;-72
2022/06/12 02:25:10;;;;;;;6.73;6.37;;;;;;;14.08;100.00;65662.41;5115627;28;20185;-72
2022/06/12 02:27:42;;;;;;;9.47;6.53;;;;;;;14.03;100.00;65652.19;5115493;28;20234;-72
2022/06/12 02:30:14;;;;;;;6.40;6.10;;;;;;;14.01;100.00;65647.38;5116023;28;20235;-72
2022/06/12 02:32:46;;;;;;;7.17;6.27;;;;;;;13.99;100.00;65647.19;5115731;28;20198;-72
2022/06/12 02:35:33;;;;;;;6.30;6.10;;;;;;;;;;5115763;28;20173;-72
2022/06/12 02:38:07;;;;;;;7.23;6.73;;;;;;;13.98;100.00;65646.63;5114973;28;20739;-72
2022/06/12 02:40:40;;;;;;;7.43;7.13;;;;;;;13.94;100.00;65642.19;5115268;28;20685;-72
2022/06/12 02:43:13;;;;;;;7.40;7.10;;;;;;;13.90;100.00;65637.72;5115242;28;20176;-73
2022/06/12 02:46:01;;;;;;;6.37;6.07;;;;;;;13.85;100.00;65629.00;5115252;28;20192;-72
2022/06/12 02:48:29;;;;;;;6.60;6.13;;;;;;;13.81;100.00;65630.34;5115121;28;20184;-72
2022/06/12 02:51:17;;;;;;;5.87;5.53;;;;;;;13.79;100.00;65625.53;5115045;28;20220;-72
2022/06/12 02:53:58;;;;;;;6.00;5.77;;;;;;;13.78;100.00;65629.59;5106254;28;20205;-72
2022/06/12 02:56:45;;;;;;;7.10;6.67;;;;;;;13.77;100.00;65623.28;5102257;27;20661;-72
2022/06/12 02:59:40;;;;;;;6.10;5.67;;;;;;;13.73;100.00;65624.06;5134364;27;20211;-72
2022/06/12 03:02:16;;;;;;;6.70;6.30;;;;;;;13.73;100.00;65616.78;5117018;27;20589;-72
2022/06/12 03:04:59;;;;;;;6.33;5.77;;;;;;;13.69;100.00;65617.00;5111685;28;20265;-72
2022/06/12 03:07:25;;;;;;;6.13;5.60;;;;;;;;;;5126335;27;20191;-72
2022/06/12 03:09:52;;;;;;;5.70;5.50;;;;;;;13.61;100.00;65605.50;5134126;27;20222;-72
2022/06/12 03:12:18;;;;;;;6.67;6.17;;;;;;;13.61;100.00;65605.50;5134822;27;20216;-72
2022/06/12 03:14:45;;;;;;;7.00;6.30;;;;;;;13.58;100.00;65607.94;5133192;27;20202;-72
2022/06/12 03:17:11;;;;;;;10.37;6.13;;;;;;;13.52;100.00;65600.72;5133621;27;20188;-72
2022/06/12 03:19:45;;;;;;;6.77;6.10;;;;;;;13.47;100.00;65591.06;5125821;27;20249;-72
2022/06/12 03:22:30;;;;;;;7.40;7.03;;;;;;;13.55;100.00;65601.44;5132349;27;20212;-72
2022/06/12 03:25:05;;;;;;;6.37;5.97;;;;;;;13.45;100.00;65585.69;5133672;27;20658;-72
2022/06/12 03:27:35;;;;;;;7.67;7.07;;;;;;;13.39;100.00;65581.63;5134636;27;20554;-71
2022/06/12 03:30:17;;;;;;;7.17;6.63;;;;;;;13.32;100.00;65582.22;5115225;27;20200;-71
2022/06/12 03:33:14;;;;;;;6.43;6.13;;;;;;;13.29;100.00;65570.50;5133653;27;20204;-71
2022/06/12 03:35:50;;;;;;;6.60;6.13;;;;;;;13.26;100.00;65567.16;5116593;27;20184;-71
2022/06/12 03:38:31;;;;;;;7.10;6.43;;;;;;;13.19;100.00;65559.91;5134937;27;20181;-71
2022/06/12 03:41:13;;;;;;;7.43;6.70;;;;;;;13.26;100.00;65565.09;5132240;27;20339;-71
2022/06/12 03:43:44;;;;;;;10.40;6.77;;;;;;;;;;5113489;28;20196;-71
2022/06/12 03:46:17;;;;;;;6.03;5.83;;;;;;;13.21;100.00;65564.75;5130195;27;20184;-71
2022/06/12 03:49:11;;;;;;;6.43;6.17;;;;;;;13.17;100.00;65570.75;5121851;27;20692;-71
2022/06/12 03:51:52;;;;;;;6.50;6.20;;;;;;;13.09;100.00;65548.81;5105311;27;20204;-71
2022/06/12 03:54:43;;;;;;;7.23;6.80;;;;;;;12.99;100.00;65538.25;5132488;27;20192;-71
2022/06/12 04:00:07;;;;;;;9.07;8.20;;;;;;;12.91;100.00;65529.94;5112721;28;20189;-72
2022/06/12 04:02:41;;;;;;;7.93;7.17;;;;;;;12.85;100.00;65523.25;5118551;27;20275;-72
2022/06/12 04:05:09;;;;;;;8.13;7.70;;;;;;;12.87;100.00;65528.09;5133217;27;20596;-72
2022/06/12 04:07:42;;;;;;;7.93;7.33;;;;;;;12.88;100.00;65541.69;5133195;27;20188;-72
2022/06/12 04:10:14;;;;;;;7.53;7.13;;;;;;;12.86;100.00;65524.38;5133007;27;20595;-72
2022/06/12 04:12:41;;;;;;;6.80;6.17;;;;;;;12.79;100.00;65532.25;5133267;27;20256;-72
2022/06/12 04:15:16;;;;;;;8.00;7.50;;;;;;;12.89;100.00;65535.53;5132192;28;20199;-72
2022/06/12 04:17:43;;;;;;;6.07;6.07;;;;;;;12.86;100.00;65523.84;5122835;28;20184;-71
2022/06/12 04:20:15;;;;;;;9.90;7.03;;;;;;;;;;5131736;28;20240;-71
2022/06/12 04:23:01;;;;;;;8.10;7.57;;;;;;;12.81;100.00;65518.81;5134169;28;20180;-72
2022/06/12 04:25:40;;;;;;;7.50;7.07;;;;;;;12.82;100.00;65519.38;5132244;28;20188;-72
2022/06/12 04:28:42;;;;;;;8.80;7.57;;;;;;;12.76;100.00;65520.53;5132826;28;20176;-71
2022/06/12 04:31:15;;;;;;;10.10;6.47;;;;;;;12.80;100.00;65519.78;5116756;28;20216;-71
2022/06/12 04:34:04;;;;;;;7.67;6.90;;;;;;;12.85;100.00;65523.25;5095409;28;20210;-72
2022/06/12 04:36:31;;;;;;;7.90;7.33;;;;;;;12.92;100.00;65523.22;5131793;28;20203;-72
2022/06/12 04:38:58;;;;;;;7.17;6.77;;;;;;;12.97;100.00;65532.88;5132928;28;20698;-72
2022/06/12 04:41:28;;;;;;;8.20;7.70;;;;;;;13.01;100.00;65537.34;5128932;28;20208;-72
2022/06/12 04:43:54;;;;;;;8.07;7.53;;;;;;;13.07;100.00;65539.31;5112954;28;20181;-72
2022/06/12 04:46:22;;;;;;;7.23;6.83;;;;;;;13.17;100.00;65562.91;5115427;28;20527;-72
2022/06/12 04:48:51;;;;;;;7.27;6.80;;;;;;;13.22;100.00;65563.28;5130359;28;20245;-72
2022/06/12 04:51:18;;;;;;;7.93;7.40;;;;;;;13.29;100.00;65571.06;5126603;28;20209;-72
2022/06/12 04:53:46;;;;;;;7.10;6.80;;;;;;;13.41;100.00;65586.44;5122093;28;20208;-72
2022/06/12 04:56:15;;;;;;;6.97;6.57;;;;;;;13.45;100.00;65586.22;5131674;28;20313;-72
2022/06/12 04:58:42;;;;;;;8.03;7.37;;;;;;;13.48;100.00;65589.00;5132536;28;20193;-72
2022/06/12 05:01:16;;;;;;;7.73;7.13;;;;;;;13.55;100.00;65602.00;5113207;28;20291;-73
2022/06/12 05:03:56;;;;;;;7.27;7.00;;;;;;;13.68;100.00;65605.47;5125873;27;20202;-72
2022/06/12 05:06:29;;;;;;;9.90;7.97;;;;;;;13.73;100.00;65624.06;5135660;27;20741;-72
2022/06/12 05:09:07;;;;;;;7.33;6.90;;;;;;;;;;5134793;27;20227;-72
2022/06/12 05:11:34;;;;;;;7.67;6.80;;;;;;;13.95;100.00;65640.69;5121251;27;20627;-72
2022/06/12 05:14:01;;;;;;;7.23;6.83;;;;;;;;;;5136624;27;20564;-72
2022/06/12 05:16:33;;;;;;;6.67;6.47;;;;;;;14.07;100.00;65655.50;5132021;27;20185;-72
2022/06/12 05:19:01;;;;;;;7.47;6.40;;;;;;;;;;5115679;27;20196;-72
2022/06/12 05:21:30;;;;;;;6.73;6.33;;;;;;;14.21;100.00;65671.09;5136277;27;20205;-72
2022/06/12 05:23:58;;;;;;;6.83;5.60;;;;;;;14.31;100.00;65679.59;5133795;27;20169;-72
2022/06/12 05:26:24;;;;;;;7.13;5.23;;;;;;;;;;5117062;28;20193;-72
2022/06/12 05:28:52;;;;;;;5.47;5.07;;;;;;;14.52;100.00;65710.81;5115620;28;20197;-72
2022/06/12 05:31:18;;;;;;;5.47;5.07;;;;;;;14.62;100.00;65716.16;5125536;27;20213;-72
2022/06/12 05:33:46;;;;;;;8.03;5.17;;;;;;;14.78;100.00;65733.41;5122388;27;20215;-72
2022/06/12 05:36:20;;;;;;;4.70;4.30;;;;;;;;;;5133985;27;21590;-73
2022/06/12 05:38:46;;;;;;;12.87;4.53;;;;;;;;;;5130134;27;20189;-73
2022/06/12 05:41:14;;;;;;;3.70;3.43;;;;;;;15.05;100.00;65762.88;5122683;27;20196;-72
2022/06/12 05:43:40;;;;;;;5.90;3.87;;;;;;;15.15;100.00;65774.03;5117568;27;20185;-72
2022/06/12 05:46:08;;;;;;;4.77;3.97;;;;;;;;;;5112674;27;20181;-74
2022/06/12 05:48:35;;;;;;;5.37;2.93;;;;;;;15.35;96.11;65800.94;5135488;27;20196;-73
2022/06/12 05:51:02;;;;;;;7.73;3.60;;;;;;;15.38;97.46;65789.16;5121468;27;20208;-72
2022/06/12 05:53:30;;;;;;;3.67;3.40;;;;;;;;;;5135048;27;20204;-73
2022/06/12 05:55:57;;;;;;;4.53;3.37;;;;;;;15.50;99.79;65815.03;5134387;27;20188;-73
2022/06/12 05:58:26;;;;;;;3.37;3.13;;;;;;;15.53;98.28;65825.66;5133166;27;20189;-73
2022/06/12 06:00:53;;;;;;;3.83;3.53;;;;;;;;;;5128711;27;20227;-73
2022/06/12 06:03:25;;;;;;;2.77;2.73;;;;;;;;;;5127975;27;20203;-74
2022/06/12 06:05:51;;;;;;;2.83;2.67;;;;;;;15.85;92.82;65860.75;5117308;27;20242;-74
2022/06/12 06:08:18;;;;;;;2.93;2.93;;;;;;;15.85;92.54;65847.66;5135173;27;20181;-75
2022/06/12 06:10:45;;;;;;;2.50;2.33;;;;;;;16.00;95.02;65869.59;5134106;27;20261;-74
2022/06/12 06:13:12;;;;;;;3.60;3.30;;;;;;;16.12;93.16;65879.81;5123204;27;20598;-74
2022/06/12 06:15:39;;;;;;;4.33;3.97;;;;;;;16.05;91.80;65862.09;5130590;27;20192;-75
2022/06/12 06:18:07;;;;;;;7.73;3.37;;;;;;;16.09;91.92;65876.47;5133352;27;20195;-73
2022/06/12 06:20:36;;;;;;;4.73;2.93;;;;;;;16.22;92.86;65890.97;5130098;27;20205;-74
2022/06/12 06:23:02;;;;;;;3.87;3.57;;;;;;;;;;5131428;27;20193;-74
2022/06/12 06:25:29;;;;;;;3.27;2.97;;;;;;;;;;5119249;27;20201;-74
2022/06/12 06:27:56;;;;;;;7.73;3.33;;;;;;;16.46;91.10;65919.75;5115882;28;20226;-74
2022/06/12 06:30:24;;;;;;;3.30;3.00;;;;;;;16.57;90.72;65932.00;5114361;28;20193;-75
2022/06/12 06:32:51;;;;;;;4.83;4.50;;;;;;;;;;5132987;27;20235;-75
2022/06/12 06:35:19;;;;;;;4.77;4.37;;;;;;;16.58;89.77;65933.13;5127470;27;20185;-75
2022/06/12 06:37:47;;;;;;;5.50;4.20;;;;;;;16.74;88.90;65948.34;5126586;27;20180;-74
2022/06/12 06:40:14;;;;;;;6.80;3.90;;;;;;;;;;5118707;27;20189;-74
2022/06/12 06:42:40;;;;;;;7.97;4.67;;;;;;;16.79;90.88;65950.75;5121317;27;20639;-75
2022/06/12 06:47:53;;;;;;;13.33;5.53;;;;;;;16.87;89.15;65964.91;5095416;28;20178;-75
2022/06/12 06:50:20;;;;;;;6.43;5.27;;;;;;;;;;5104322;28;20573;-75
2022/06/12 06:52:47;;;;;;;5.33;4.87;;;;;;;17.03;88.66;65985.38;5115021;28;20209;-75
2022/06/12 06:55:14;;;;;;;5.00;4.83;;;;;;;17.13;87.13;65990.72;5114999;28;20675;-75
2022/06/12 06:57:44;;;;;;;5.13;4.50;;;;;;;17.15;87.50;65984.53;5114986;28;20186;-75
2022/06/12 07:00:16;;;;;;;4.37;3.87;;;;;;;17.28;86.53;66004.25;5114711;28;20204;-75
2022/06/12 07:02:43;;;;;;;9.47;3.90;;;;;;;17.39;87.39;66018.59;5114658;28;20192;-74
2022/06/12 07:05:10;;;;;;;5.50;3.60;;;;;;;17.37;86.09;66013.75;5115252;28;20746;-75
2022/06/12 07:07:37;;;;;;;6.50;3.83;;;;;;;;;;5114724;28;20191;-75
2022/06/12 07:10:08;;;;;;;9.03;3.63;;;;;;;17.56;84.87;66034.91;5114766;28;20185;-75
2022/06/12 07:12:34;;;;;;;3.20;2.83;;;;;;;17.70;84.29;66052.59;5114757;28;20193;-75
2022/06/12 07:15:01;;;;;;;2.93;2.63;;;;;;;17.81;83.01;66062.28;5114549;28;20193;-74
2022/06/12 07:17:28;;;;;;;3.50;2.67;;;;;;;17.77;78.86;66053.09;5114385;28;20203;-75
2022/06/12 07:19:54;;;;;;;5.33;2.73;;;;;;;17.72;79.77;66052.78;5111708;28;20651;-74
2022/06/12 07:22:21;;;;;;;4.33;2.80;;;;;;;17.68;79.71;66050.38;5115627;27;20205;-72
2022/06/12 07:24:48;;;;;;;3.63;3.03;;;;;;;17.76;79.80;66056.69;5094143;28;20190;-74
2022/06/12 07:27:14;;;;;;;3.33;2.77;;;;;;;17.73;79.38;66067.03;5113424;27;20551;-75
2022/06/12 07:29:41;;;;;;;3.00;2.77;;;;;;;;;;5124218;27;20198;-73
2022/06/12 07:32:08;;;;;;;7.50;3.50;;;;;;;17.78;79.59;66062.09;5114287;28;20553;-75
2022/06/12 07:34:35;;;;;;;3.67;3.30;;;;;;;17.85;79.37;66066.72;5114246;28;20204;-73
2022/06/12 07:37:01;;;;;;;3.30;3.10;;;;;;;;;;5113189;28;20562;-74
2022/06/12 07:39:31;;;;;;;6.10;3.60;;;;;;;17.99;75.91;66076.53;5114210;28;20181;-73
2022/06/12 07:41:58;;;;;;;4.23;3.70;;;;;;;;;;5114760;28;20271;-72
2022/06/12 07:44:28;;;;;;;3.00;2.80;;;;;;;18.06;76.23;66092.22;5128573;27;20184;-75
2022/06/12 07:46:55;;;;;;;3.87;3.57;;;;;;;;;;5134990;27;20185;-75
2022/06/12 07:49:24;;;;;;;3.23;3.03;;;;;;;18.04;74.80;66082.13;5113405;27;20211;-74
2022/06/12 07:51:52;;;;;;;3.47;2.67;;;;;;;18.14;76.21;66093.84;5127311;27;20204;-73
2022/06/12 07:54:19;;;;;;;6.40;3.37;;;;;;;;;;5107520;28;20590;-73
2022/06/12 07:56:46;;;;;;;4.20;3.83;;;;;;;18.33;76.99;66124.97;5113212;27;20212;-73
2022/06/12 07:59:13;;;;;;;2.83;2.63;;;;;;;18.39;76.26;66129.06;5134110;27;20180;-75
2022/06/12 08:01:40;;;;;;;6.80;3.20;;;;;;;;;;5130276;27;20217;-74
2022/06/12 08:04:08;;;;;;;4.13;3.27;;;;;;;;;;5131106;27;20706;-74
2022/06/12 08:06:34;;;;;;;5.80;3.80;;;;;;;18.65;74.87;66159.59;5113163;27;20238;-74
2022/06/12 08:09:05;;;;;;;3.43;3.23;;;;;;;18.70;76.31;66155.22;5112699;28;20242;-74
2022/06/12 08:11:32;;;;;;;7.97;3.70;;;;;;;18.79;76.81;66164.72;5112885;28;20578;-74
2022/06/12 08:13:59;;;;;;;6.20;3.33;;;;;;;;;;5111563;27;20205;-73
2022/06/12 08:16:26;;;;;;;4.53;3.93;;;;;;;;;;5129871;27;20234;-74
2022/06/12 08:18:52;;;;;;;8.53;2.80;;;;;;;;;;5131389;28;20199;-74
2022/06/12 08:21:19;;;;;;;2.63;2.27;;;;;;;;;;5128611;28;20230;-73
2022/06/12 08:23:51;;;;;;;2.40;2.20;;;;;;;19.03;66.54;66190.41;5111619;28;20246;-73
2022/06/12 08:26:25;;;;;;;4.47;2.30;;;;;;;19.08;60.06;66206.50;5111271;28;20181;-73
2022/06/12 08:28:56;;;;;;;2.37;1.60;;;;;;;19.13;63.79;66207.38;5111980;28;20189;-74
2022/06/12 08:31:27;;;;;;;1.80;1.70;;;;;;;;;;5108028;28;20218;-73
2022/06/12 08:33:58;;;;;;;3.13;1.73;;;;;;;19.17;63.58;66206.59;5109305;28;20702;-74
2022/06/12 08:36:25;;;;;;;3.60;2.70;;;;;;;19.19;66.32;66213.53;5099337;27;20184;-74
2022/06/12 08:38:51;;;;;;;2.10;2.00;;;;;;;;;;5128693;27;20196;-73
2022/06/12 08:41:33;;;;;;;2.27;2.07;;;;;;;19.32;69.83;66228.03;5138492;27;20211;-74
2022/06/12 08:44:07;;;;;;;2.10;2.00;;;;;;;19.18;62.30;66212.41;5107687;28;20275;-73
2022/06/12 08:46:43;;;;;;;1.70;1.70;;;;;;;;;;5117898;28;20616;-74
2022/06/12 08:49:18;;;;;;;2.30;2.20;;;;;;;19.11;64.36;66199.88;5117066;28;20686;-73
2022/06/12 08:52:02;;;;;;;2.50;2.40;;;;;;;19.15;64.70;66209.06;5116735;28;20212;-73
2022/06/12 08:54:45;;;;;;;2.27;1.77;;;;;;;19.35;64.84;66231.38;5116162;28;20246;-72
2022/06/12 08:57:21;;;;;;;1.87;1.87;;;;;;;19.31;59.94;66226.94;5099141;28;20268;-73
2022/06/12 09:00:00;;;;;;;1.67;1.60;;;;;;;19.31;61.98;66221.13;5117605;28;20162;-73
2022/06/12 09:02:30;;;;;;;2.00;1.90;;;;;;;;;;5117094;28;20221;-73
2022/06/12 09:04:57;;;;;;;1.70;1.70;;;;;;;;;;5098966;28;20556;-73
2022/06/12 09:07:38;;;;;;;1.80;1.47;;;;;;;19.33;61.41;66229.16;5117175;28;20189;-73
2022/06/12 09:10:08;;;;;;;1.67;1.60;;;;;;;;;;5117423;28;20170;-73
2022/06/12 09:12:51;;;;;;;1.90;1.90;;;;;;;19.36;63.14;66235.16;5117079;28;20185;-73
2022/06/12 09:15:41;;;;;;;1.73;1.73;;;;;;;19.40;65.51;66236.97;5117075;28;20177;-73
2022/06/12 09:18:14;;;;;;;4.10;1.73;;;;;;;;;;5117261;28;20174;-74
2022/06/12 09:20:57;;;;;;;2.00;1.80;;;;;;;19.65;66.63;66264.38;5116896;28;20209;-74
2022/06/12 09:24:22;;;;;;;5.87;1.60;;;;;;;19.52;62.09;66241.94;5117147;28;20627;-73
2022/06/12 09:27:08;;;;;;;2.53;2.43;;;;;;;19.59;66.61;66259.75;5015006;28;20200;-73
2022/06/12 09:29:41;;;;;;;2.63;2.57;;;;;;;;;;5116743;28;20189;-73
2022/06/12 09:32:29;;;;;;;2.37;2.23;;;;;;;19.56;63.84;66256.38;5116573;28;20213;-74
2022/06/12 09:34:56;;;;;;;2.50;2.30;;;;;;;;;;5116640;28;20197;-74
2022/06/12 09:38:20;;;;;;;4.80;1.83;;;;;;;19.66;65.31;66259.66;5116875;28;20246;-73
2022/06/12 09:41:17;;;;;;;2.13;1.93;;;;;;;19.70;66.40;66269.41;5116893;28;20213;-73
2022/06/12 09:44:09;;;;;;;1.70;1.70;;;;;;;19.79;68.42;66282.09;5116765;28;20631;-72
2022/06/12 09:46:42;;;;;;;1.70;1.70;;;;;;;19.74;65.46;66268.59;5116741;28;20238;-73
2022/06/12 09:49:18;;;;;;;1.90;1.80;;;;;;;19.86;65.26;66287.28;5115791;28;20234;-73
2022/06/12 09:51:53;;;;;;;6.17;1.90;;;;;;;;;;5116319;28;20208;-73
2022/06/12 09:54:30;;;;;;;2.20;1.90;;;;;;;19.84;67.42;66285.03;5116429;28;20245;-73
2022/06/12 09:57:23;;;;;;;2.33;2.13;;;;;;;20.06;69.54;66304.34;5116256;28;20177;-73
2022/06/12 10:00:22;;;;;;;9.10;2.03;;;;;;;19.95;66.64;66297.34;5116492;28;20178;-74
2022/06/12 10:03:03;;;;;;;4.33;2.20;;;;;;;20.13;66.51;66308.97;5108898;28;20213;-73
2022/06/12 10:05:43;;;;;;;4.13;2.07;;;;;;;;;;5116623;28;20177;-73
2022/06/12 10:08:21;;;;;;;3.30;2.13;;;;;;;;;;5116274;28;20236;-73
2022/06/12 10:11:19;;;;;;;2.27;2.17;;;;;;;20.26;68.56;66330.88;5115929;28;20209;-73
2022/06/12 10:14:03;;;;;;;2.73;2.63;;;;;;;;;;5115826;28;20209;-73
2022/06/12 10:16:54;;;;;;;5.20;2.40;;;;;;;20.34;64.03;66339.81;5115901;28;20238;-73
2022/06/12 10:20:03;;;;;;;3.70;2.03;;;;;;;;;;5116097;28;20181;-73
2022/06/12 10:22:33;;;;;;;2.33;2.23;;;;;;;;;;5013354;28;20238;-73
2022/06/12 10:25:02;;;;;;;2.80;2.23;;;;;;;20.34;66.90;66339.81;5097420;28;20197;-74
2022/06/12 10:27:40;;;;;;;3.87;2.77;;;;;;;;;;5115625;28;20196;-73
2022/06/12 10:30:06;;;;;;;2.43;2.27;;;;;;;;;;5115899;28;20165;-73
2022/06/12 10:32:47;;;;;;;7.80;2.50;;;;;;;;;;5115439;28;20201;-74
2022/06/12 10:35:14;;;;;;;4.53;2.67;;;;;;;;;;5115370;28;20193;-73
2022/06/12 10:37:41;;;;;;;5.90;2.20;;;;;;;;;;5115953;28;20193;-73
2022/06/12 10:40:21;;;;;;;3.27;2.97;;;;;;;20.63;67.42;66363.78;5115649;28;20178;-73
2022/06/12 10:42:57;;;;;;;3.87;2.80;;;;;;;20.59;64.78;66367.22;5115282;28;20173;-74
2022/06/12 10:45:24;;;;;;;4.27;2.80;;;;;;;;;;5115575;28;20253;-74
2022/06/12 10:47:51;;;;;;;2.87;2.27;;;;;;;;;;5115275;28;20193;-74
2022/06/12 10:50:47;;;;;;;3.37;1.90;;;;;;;20.74;66.38;66383.44;5115414;28;20639;-74
2022/06/12 10:53:16;;;;;;;3.27;2.23;;;;;;;20.61;64.36;66370.00;5115591;28;20177;-74
2022/06/12 10:56:22;;;;;;;3.17;2.37;;;;;;;20.59;65.41;66367.78;5115389;28;20177;-74
2022/06/12 10:59:04;;;;;;;4.37;2.70;;;;;;;;;;5115043;28;20222;-74
2022/06/12 11:01:56;;;;;;;3.73;2.40;;;;;;;20.29;64.18;66337.44;5114955;28;20702;-74
2022/06/12 11:04:34;;;;;;;2.93;2.37;;;;;;;;;;5114881;28;20559;-74
2022/06/12 11:07:00;;;;;;;2.90;2.80;;;;;;;;;;5115235;28;20234;-73
2022/06/12 11:09:38;;;;;;;5.37;2.80;;;;;;;;;;5115406;28;20176;-72
2022/06/12 11:12:24;;;;;;;4.83;3.00;;;;;;;;;;5114687;28;20234;-72
2022/06/12 11:14:57;;;;;;;6.37;3.37;;;;;;;;;;5114910;28;20254;-72
2022/06/12 11:17:43;;;;;;;2.00;1.83;;;;;;;;;;5096385;28;20682;-74
2022/06/12 11:20:42;;;;;;;3.80;3.10;;;;;;;20.78;69.55;66390.53;5114886;28;20251;-73
2022/06/12 11:23:54;;;;;;;3.03;2.77;;;;;;;21.02;63.70;66416.84;5114880;28;20173;-73
2022/06/12 11:26:41;;;;;;;15.23;4.47;;;;;;;21.05;64.83;66412.25;5114850;28;20353;-73
2022/06/12 11:29:17;;;;;;;8.43;3.33;;;;;;;21.02;63.83;66419.47;5115014;28;20582;-73
2022/06/12 11:32:19;;;;;;;6.33;2.70;;;;;;;20.96;64.18;66412.75;5114873;28;20201;-73
2022/06/12 11:34:51;;;;;;;2.53;2.43;;;;;;;20.68;66.99;66376.72;5114559;28;20189;-73
2022/06/12 11:37:37;;;;;;;6.73;1.83;;;;;;;20.70;65.10;66378.97;5114576;28;20188;-74
2022/06/12 11:40:22;;;;;;;2.33;2.23;;;;;;;20.58;66.03;66366.13;5114207;28;20230;-72
2022/06/12 11:43:10;;;;;;;6.00;2.97;;;;;;;20.64;66.15;66364.34;5114172;28;20567;-73
2022/06/12 11:45:53;;;;;;;3.17;2.87;;;;;;;20.47;69.17;66356.44;5114189;28;20219;-74
2022/06/12 11:48:40;;;;;;;5.20;2.73;;;;;;;;;;5114363;28;20176;-73
2022/06/12 11:51:19;;;;;;;2.73;2.33;;;;;;;;;;5113984;28;20288;-73
2022/06/12 11:54:02;;;;;;;3.43;2.83;;;;;;;;;;5113939;28;20551;-73
2022/06/12 11:56:36;;;;;;;3.77;3.13;;;;;;;20.40;70.32;66345.97;5114012;28;20177;-72
2022/06/12 11:59:19;;;;;;;5.20;2.70;;;;;;;20.52;67.95;66354.13;5114290;28;20312;-72
2022/06/12 12:02:01;;;;;;;2.77;2.63;;;;;;;20.74;67.54;66378.16;5114043;28;20205;-72
2022/06/12 12:04:42;;;;;;;4.07;2.07;;;;;;;;;;5113781;28;20189;-73
2022/06/12 12:07:32;;;;;;;2.60;2.40;;;;;;;;;;5114186;28;20218;-72
2022/06/12 12:10:04;;;;;;;3.10;2.97;;;;;;;;;;5113832;28;20176;-72
2022/06/12 12:12:37;;;;;;;3.87;2.67;;;;;;;21.07;67.83;66415.06;5113875;28;20679;-72
2022/06/12 12:15:05;;;;;;;3.50;3.03;;;;;;;;;;5114274;28;20243;-73
2022/06/12 12:17:40;;;;;;;2.47;2.27;;;;;;;21.37;64.58;66455.47;5113709;28;20313;-72
2022/06/12 12:20:13;;;;;;;5.37;3.00;;;;;;;;;;5114008;28;20181;-73
2022/06/12 12:22:48;;;;;;;3.00;2.93;;;;;;;21.41;66.19;66460.47;5114077;28;20611;-73
2022/06/12 12:25:29;;;;;;;3.13;3.00;;;;;;;21.33;63.74;66450.97;5114182;28;20177;-73
2022/06/12 12:28:01;;;;;;;2.80;2.60;;;;;;;21.40;66.85;66456.16;5114206;28;20183;-72
2022/06/12 12:30:31;;;;;;;3.13;2.33;;;;;;;21.47;65.46;66469.28;5113786;28;20173;-74
2022/06/12 12:32:59;;;;;;;5.17;2.50;;;;;;;;;;5113790;28;20227;-74
2022/06/12 12:41:13;;;;;;;2.30;2.20;;;;;;;21.60;58.26;66470.63;5113951;28;20209;-73
2022/06/12 12:43:54;;;;;;;2.30;2.20;;;;;;;;;;5114061;28;20173;-73
2022/06/12 12:46:22;;;;;;;2.90;2.80;;;;;;;;;;5113447;28;20185;-74
2022/06/12 12:48:49;;;;;;;2.83;2.67;;;;;;;;;;5113423;28;20184;-74
2022/06/12 12:51:29;;;;;;;2.67;2.47;;;;;;;21.35;65.73;66442.63;5113588;28;20604;-74
2022/06/12 12:54:06;;;;;;;2.70;2.60;;;;;;;;;;5113848;28;20180;-75
2022/06/12 12:56:34;;;;;;;2.80;2.70;;;;;;;21.33;66.26;66443.06;5114108;28;20192;-73
2022/06/12 12:59:05;;;;;;;3.23;3.13;;;;;;;21.15;63.29;66418.19;5113914;28;20189;-74
2022/06/12 13:01:38;;;;;;;2.40;2.40;;;;;;;21.33;66.80;66450.97;5113348;28;20205;-73
2022/06/12 13:04:30;;;;;;;4.77;2.03;;;;;;;;;;5113073;28;20674;-74
2022/06/12 13:07:28;;;;;;;2.60;2.23;;;;;;;21.45;61.86;66461.75;5113296;28;20181;-73
2022/06/12 13:10:29;;;;;;;2.63;2.53;;;;;;;21.52;60.81;66474.88;5113547;28;20185;-75
2022/06/12 13:13:14;;;;;;;4.90;2.53;;;;;;;;;;5113285;28;20173;-72